createdAt,value
2023-01-17T00:00:10.057Z,12.02
2023-01-17T00:03:02.097Z,10.52
2023-01-17T00:05:49.041Z,11.18
2023-01-17T00:08:32.475Z,9.35
2023-01-17T00:11:04.219Z,7.85
2023-01-17T00:13:35.974Z,8.20
2023-01-17T00:16:07.848Z,8.15
2023-01-17T00:18:39.630Z,9.25
2023-01-17T00:21:26.163Z,7.63
2023-01-17T00:24:09.706Z,8.43
2023-01-17T00:26:53.460Z,8.07
2023-01-17T00:29:21.591Z,7.50
2023-01-17T00:31:50.384Z,7.50
2023-01-17T00:34:18.837Z,7.18
2023-01-17T00:36:49.838Z,7.13
2023-01-17T00:39:18.087Z,7.30
2023-01-17T00:41:48.575Z,7.85
2023-01-17T00:44:31.881Z,7.90
2023-01-17T00:47:15.653Z,6.72
2023-01-17T00:49:59.666Z,7.85
2023-01-17T00:52:47.819Z,6.97
2023-01-17T00:55:31.377Z,7.18
2023-01-17T00:58:21.722Z,7.82
2023-01-17T01:01:06.146Z,7.90
2023-01-17T01:03:50.475Z,7.60
2023-01-17T01:06:33.887Z,7.43
2023-01-17T01:09:20.575Z,8.00
2023-01-17T01:12:04.028Z,7.53
2023-01-17T01:14:47.765Z,7.32
2023-01-17T01:17:31.171Z,6.97
2023-01-17T01:20:14.959Z,7.10
2023-01-17T01:22:59.013Z,6.90
2023-01-17T01:25:45.729Z,7.25
2023-01-17T01:28:30.650Z,6.57
2023-01-17T01:31:15.621Z,7.70
2023-01-17T01:33:46.657Z,6.10
2023-01-17T01:36:18.837Z,6.75
2023-01-17T01:38:50.559Z,6.82
2023-01-17T01:41:24.613Z,7.05
2023-01-17T01:43:58.266Z,6.50
2023-01-17T01:46:36.316Z,6.60
2023-01-17T01:49:11.943Z,6.57
2023-01-17T01:51:46.955Z,7.68
2023-01-17T01:54:23.522Z,6.65
2023-01-17T01:56:59.671Z,5.53
2023-01-17T01:59:31.543Z,6.05
2023-01-17T02:02:06.341Z,5.63
2023-01-17T02:04:41.152Z,5.70
2023-01-17T02:07:16.097Z,5.50
2023-01-17T02:09:47.935Z,5.40
2023-01-17T02:12:23.348Z,5.40
2023-01-17T02:14:54.588Z,5.88
2023-01-17T02:17:35.903Z,5.35
2023-01-17T02:20:36.998Z,4.95
2023-01-17T02:23:56.957Z,5.45
2023-01-17T02:27:00.733Z,5.95
2023-01-17T02:30:06.146Z,4.45
2023-01-17T02:32:53.535Z,4.38
2023-01-17T02:35:32.914Z,4.53
2023-01-17T02:38:11.731Z,5.53
2023-01-17T02:40:48.073Z,5.95
2023-01-17T02:43:21.682Z,4.85
2023-01-17T02:45:53.554Z,5.93
2023-01-17T02:48:31.431Z,5.97
2023-01-17T02:51:36.970Z,6.18
2023-01-17T02:54:25.919Z,5.70
2023-01-17T02:57:12.967Z,6.75
2023-01-17T02:59:56.260Z,7.78
2023-01-17T03:02:37.799Z,7.88
2023-01-17T03:05:17.861Z,7.43
2023-01-17T03:07:50.916Z,9.43
2023-01-17T03:10:23.723Z,8.90
2023-01-17T03:13:00.903Z,9.70
2023-01-17T03:15:34.969Z,10.05
2023-01-17T03:18:14.134Z,10.50
2023-01-17T03:20:47.791Z,11.07
2023-01-17T03:23:19.188Z,11.32
2023-01-17T03:25:50.094Z,12.57
2023-01-17T03:28:21.379Z,12.30
2023-01-17T03:30:52.422Z,11.68
2023-01-17T03:33:23.738Z,12.07
2023-01-17T03:35:58.395Z,11.65
2023-01-17T03:38:30.803Z,11.57
2023-01-17T03:41:01.668Z,12.15
2023-01-17T03:43:33.238Z,11.20
2023-01-17T03:46:09.036Z,10.95
2023-01-17T03:48:43.918Z,12.68
2023-01-17T03:51:17.393Z,12.50
2023-01-17T03:53:50.348Z,11.27
2023-01-17T03:56:21.455Z,11.75
2023-01-17T03:58:52.799Z,11.93
2023-01-17T04:01:23.748Z,12.45
2023-01-17T04:03:55.608Z,13.38
2023-01-17T04:06:29.168Z,12.15
2023-01-17T04:09:00.649Z,13.43
2023-01-17T04:11:31.543Z,12.43
2023-01-17T04:14:02.795Z,14.02
2023-01-17T04:19:05.861Z,13.18
2023-01-17T04:21:39.280Z,13.73
2023-01-17T04:24:11.149Z,12.95
2023-01-17T04:26:42.564Z,14.10
2023-01-17T04:29:13.814Z,13.60
2023-01-17T04:34:15.555Z,14.10
2023-01-17T04:39:20.375Z,14.20
2023-01-17T04:44:22.155Z,15.65
2023-01-17T04:46:53.222Z,14.93
2023-01-17T04:49:24.912Z,17.20
2023-01-17T04:51:58.499Z,17.17
2023-01-17T04:54:29.770Z,18.83
2023-01-17T04:59:31.947Z,14.80
2023-01-17T05:02:03.589Z,16.10
2023-01-17T05:04:34.837Z,16.98
2023-01-17T05:09:39.626Z,16.00
2023-01-17T05:14:42.116Z,16.83
2023-01-17T05:19:44.614Z,16.10
2023-01-17T05:22:18.569Z,18.77
2023-01-17T05:24:51.022Z,20.58
2023-01-17T05:27:21.947Z,22.45
2023-01-17T05:29:53.231Z,18.50
2023-01-17T05:34:55.421Z,17.83
2023-01-17T05:39:59.926Z,18.88
2023-01-17T05:42:30.852Z,19.10
2023-01-17T05:45:02.143Z,19.55
2023-01-17T05:47:33.088Z,18.55
2023-01-17T05:50:04.337Z,20.60
2023-01-17T05:55:10.237Z,19.83
2023-01-17T05:57:42.407Z,20.83
2023-01-17T06:00:15.417Z,17.90
2023-01-17T06:02:46.455Z,18.77
2023-01-17T06:05:18.788Z,19.23
2023-01-17T06:07:53.250Z,18.60
2023-01-17T06:10:25.482Z,21.40
2023-01-17T06:13:05.650Z,20.38
2023-01-17T06:15:39.108Z,19.95
2023-01-17T06:18:10.764Z,18.45
2023-01-17T06:20:42.978Z,20.55
2023-01-17T06:23:18.232Z,24.30
2023-01-17T06:25:50.845Z,23.80
2023-01-17T06:28:25.294Z,26.55
2023-01-17T06:30:57.020Z,23.33
2023-01-17T06:33:28.091Z,25.73
2023-01-17T06:35:59.551Z,23.58
2023-01-17T06:38:33.801Z,23.45
2023-01-17T06:41:07.555Z,22.60
2023-01-17T06:43:39.211Z,21.25
2023-01-17T06:46:10.734Z,22.85
2023-01-17T06:48:43.826Z,21.60
2023-01-17T06:51:15.113Z,21.52
2023-01-17T06:56:21.842Z,22.52
2023-01-17T06:58:53.342Z,22.30
2023-01-17T07:01:25.347Z,21.83
2023-01-17T07:03:56.782Z,22.80
2023-01-17T07:06:29.147Z,20.38
2023-01-17T07:09:04.418Z,21.20
2023-01-17T07:11:35.875Z,20.90
2023-01-17T07:14:07.800Z,23.13
2023-01-17T07:16:42.198Z,22.17
2023-01-17T07:19:13.161Z,25.80
2023-01-17T07:21:44.699Z,21.40
2023-01-17T07:24:18.918Z,21.80
2023-01-17T07:26:52.036Z,23.10
2023-01-17T07:29:23.003Z,24.15
2023-01-17T07:31:54.332Z,23.13
2023-01-17T07:39:29.936Z,25.27
2023-01-17T07:42:02.982Z,25.05
2023-01-17T07:44:33.883Z,35.17
2023-01-17T07:47:05.213Z,23.13
2023-01-17T07:49:36.756Z,23.80
2023-01-17T07:52:10.112Z,37.90
2023-01-17T07:54:43.657Z,32.08
2023-01-17T07:57:15.628Z,23.02
2023-01-17T07:59:46.823Z,25.83
2023-01-17T08:02:20.778Z,27.10
2023-01-17T08:04:52.168Z,23.00
2023-01-17T08:07:23.641Z,27.98
2023-01-17T08:09:57.346Z,28.48
2023-01-17T08:12:29.750Z,26.27
2023-01-17T08:15:00.777Z,26.88
2023-01-17T08:17:34.199Z,26.42
2023-01-17T08:20:06.403Z,25.63
2023-01-17T08:22:37.747Z,26.33
2023-01-17T08:27:43.264Z,24.77
2023-01-17T08:30:15.180Z,22.83
2023-01-17T08:32:46.651Z,23.05
2023-01-17T08:35:17.792Z,25.50
2023-01-17T08:37:49.477Z,25.98
2023-01-17T08:40:23.407Z,22.70
2023-01-17T08:43:00.856Z,19.98
2023-01-17T08:45:32.067Z,21.65
2023-01-17T08:48:03.322Z,19.60
2023-01-17T08:53:07.166Z,20.10
2023-01-17T08:55:41.213Z,19.70
2023-01-17T08:58:12.457Z,20.45
2023-01-17T09:03:15.035Z,22.67
2023-01-17T09:05:46.052Z,22.73
2023-01-17T09:08:17.421Z,21.48
2023-01-17T09:13:21.783Z,18.90
2023-01-17T09:15:52.685Z,23.67
2023-01-17T09:18:24.027Z,21.23
2023-01-17T09:20:57.951Z,23.20
2023-01-17T09:23:32.959Z,17.75
2023-01-17T09:26:06.466Z,19.15
2023-01-17T09:28:41.321Z,20.20
2023-01-17T09:31:12.725Z,18.20
2023-01-17T09:33:44.942Z,19.65
2023-01-17T09:36:15.777Z,18.35
2023-01-17T09:38:47.001Z,21.17
2023-01-17T09:44:04.484Z,19.38
2023-01-17T09:46:41.017Z,17.27
2023-01-17T09:49:17.662Z,21.55
2023-01-17T09:51:48.707Z,20.55
2023-01-17T09:54:25.660Z,18.60
2023-01-17T09:57:06.065Z,16.95
2023-01-17T09:59:45.952Z,20.85
2023-01-17T10:02:41.204Z,20.52
2023-01-17T10:05:37.042Z,16.73
2023-01-17T10:08:22.063Z,15.13
2023-01-17T10:11:06.324Z,15.80
2023-01-17T10:13:48.897Z,15.98
2023-01-17T10:16:40.782Z,14.65
2023-01-17T10:19:21.764Z,17.25
2023-01-17T10:22:06.088Z,17.10
2023-01-17T10:25:00.567Z,16.50
2023-01-17T10:27:37.408Z,25.98
2023-01-17T10:30:25.325Z,25.83
2023-01-17T10:32:58.220Z,43.08
2023-01-17T10:35:33.997Z,20.13
2023-01-17T10:38:10.003Z,21.33
2023-01-17T10:40:45.789Z,16.48
2023-01-17T10:43:25.015Z,19.17
2023-01-17T10:46:00.334Z,14.32
2023-01-17T10:48:41.701Z,14.38
2023-01-17T10:51:24.985Z,14.05
2023-01-17T10:54:11.145Z,13.45
2023-01-17T10:56:43.668Z,13.80
2023-01-17T10:59:30.187Z,15.38
2023-01-17T11:02:07.629Z,15.75
2023-01-17T11:04:43.118Z,18.55
2023-01-17T11:07:17.104Z,14.57
2023-01-17T11:09:49.897Z,15.30
2023-01-17T11:12:30.048Z,13.68
2023-01-17T11:15:05.677Z,14.68
2023-01-17T11:17:43.757Z,14.15
2023-01-17T11:20:23.749Z,13.60
2023-01-17T11:23:08.963Z,14.20
2023-01-17T11:25:40.785Z,14.15
2023-01-17T11:28:23.899Z,13.13
2023-01-17T11:30:56.421Z,14.98
2023-01-17T11:33:45.329Z,13.77
2023-01-17T11:36:21.732Z,19.23
2023-01-17T11:39:03.272Z,13.80
2023-01-17T11:41:39.722Z,16.00
2023-01-17T11:44:26.242Z,12.85
2023-01-17T11:47:19.886Z,12.98
2023-01-17T11:49:55.607Z,13.60
2023-01-17T11:52:31.539Z,16.08
2023-01-17T11:55:02.991Z,12.40
2023-01-17T11:57:36.525Z,16.23
2023-01-17T12:00:19.674Z,14.20
2023-01-17T12:03:16.268Z,17.23
2023-01-17T12:06:02.616Z,13.75
2023-01-17T12:08:51.448Z,18.90
2023-01-17T12:11:29.065Z,17.13
2023-01-17T12:14:05.013Z,22.40
2023-01-17T12:17:01.406Z,14.05
2023-01-17T12:19:41.573Z,15.93
2023-01-17T12:22:35.292Z,14.65
2023-01-17T12:25:25.829Z,15.07
2023-01-17T12:28:22.342Z,26.33
2023-01-17T12:31:09.115Z,22.10
2023-01-17T12:33:48.593Z,19.85
2023-01-17T12:36:39.053Z,18.50
2023-01-17T12:39:15.377Z,16.03
2023-01-17T12:42:00.568Z,17.20
2023-01-17T12:44:44.557Z,15.02
2023-01-17T12:47:18.332Z,13.77
2023-01-17T12:49:53.484Z,15.43
2023-01-17T12:52:40.169Z,16.67
2023-01-17T12:55:18.434Z,13.38
2023-01-17T12:57:57.353Z,15.10
2023-01-17T13:00:31.483Z,15.43
2023-01-17T13:03:10.678Z,15.52
2023-01-17T13:05:43.279Z,18.17
2023-01-17T13:08:22.983Z,25.77
2023-01-17T13:11:00.599Z,17.80
2023-01-17T13:13:35.835Z,17.08
2023-01-17T13:16:14.336Z,22.20
2023-01-17T13:18:48.763Z,23.10
2023-01-17T13:21:37.666Z,20.13
2023-01-17T13:24:34.100Z,18.75
2023-01-17T13:27:34.762Z,17.67
2023-01-17T13:30:27.417Z,17.05
2023-01-17T13:33:29.969Z,17.10
2023-01-17T13:36:13.721Z,18.65
2023-01-17T13:38:58.641Z,19.13
2023-01-17T13:41:48.853Z,17.20
2023-01-17T13:44:25.763Z,19.98
2023-01-17T13:47:05.075Z,35.85
2023-01-17T13:49:39.056Z,64.10
2023-01-17T13:52:12.867Z,44.78
2023-01-17T13:54:48.465Z,43.50
2023-01-17T13:57:42.206Z,22.77
2023-01-17T14:00:55.247Z,21.77
2023-01-17T14:04:08.515Z,15.90
2023-01-17T14:06:45.325Z,17.63
2023-01-17T14:09:27.548Z,33.95
2023-01-17T14:12:07.970Z,53.00
2023-01-17T14:14:55.849Z,30.25
2023-01-17T14:17:37.989Z,34.50
2023-01-17T14:20:39.363Z,27.63
2023-01-17T14:23:50.419Z,22.05
2023-01-17T14:26:41.358Z,16.83
2023-01-17T14:29:42.768Z,15.55
2023-01-17T14:32:16.137Z,20.63
2023-01-17T14:34:48.842Z,18.77
2023-01-17T14:37:27.457Z,34.10
2023-01-17T14:40:01.848Z,21.92
2023-01-17T14:42:34.319Z,26.23
2023-01-17T14:45:08.621Z,43.55
2023-01-17T14:47:41.831Z,65.70
2023-01-17T14:50:14.593Z,62.70
2023-01-17T14:52:45.770Z,69.15
2023-01-17T14:55:22.073Z,69.22
2023-01-17T14:57:59.604Z,72.60
2023-01-17T15:00:33.804Z,51.97
2023-01-17T15:03:05.950Z,49.45
2023-01-17T15:05:36.948Z,25.30
2023-01-17T15:08:08.358Z,29.45
2023-01-17T15:10:52.541Z,52.17
2023-01-17T15:13:42.739Z,74.47
2023-01-17T15:16:22.861Z,93.28
2023-01-17T15:18:54.704Z,121.55
2023-01-17T15:21:27.640Z,110.47
2023-01-17T15:24:01.633Z,157.40
2023-01-17T15:26:37.322Z,125.70
2023-01-17T15:29:11.199Z,201.00
2023-01-17T15:31:44.924Z,161.50
2023-01-17T15:34:29.083Z,75.78
2023-01-17T15:37:02.517Z,28.90
2023-01-17T15:39:36.751Z,21.85
2023-01-17T15:42:23.865Z,24.00
2023-01-17T15:44:58.296Z,18.55
2023-01-17T15:47:31.976Z,17.15
2023-01-17T15:50:05.599Z,17.98
2023-01-17T15:52:36.309Z,17.65
2023-01-17T15:55:16.251Z,29.80
2023-01-17T15:57:53.139Z,34.53
2023-01-17T16:00:27.004Z,26.92
2023-01-17T16:02:59.742Z,20.92
2023-01-17T16:05:46.603Z,23.65
2023-01-17T16:08:40.185Z,21.58
2023-01-17T16:11:15.972Z,24.88
2023-01-17T16:13:49.570Z,24.83
2023-01-17T16:16:27.043Z,29.02
2023-01-17T16:19:03.429Z,23.17
2023-01-17T16:21:35.255Z,28.80
2023-01-17T16:24:06.050Z,22.00
2023-01-17T16:26:37.197Z,44.78
2023-01-17T16:29:10.768Z,76.05
2023-01-17T16:31:41.994Z,49.90
2023-01-17T16:36:46.238Z,33.15
2023-01-17T16:41:48.724Z,31.08
2023-01-17T16:44:22.145Z,28.02
2023-01-17T16:46:53.291Z,26.58
2023-01-17T16:49:23.977Z,28.30
2023-01-17T16:51:55.273Z,26.02
2023-01-17T16:56:57.270Z,24.83
2023-01-17T16:59:45.932Z,26.42
2023-01-17T17:02:21.675Z,25.38
2023-01-17T17:04:52.650Z,29.35
2023-01-17T17:07:23.741Z,30.40
2023-01-17T17:12:25.628Z,36.67
2023-01-17T17:17:29.835Z,32.90
2023-01-17T17:20:00.576Z,30.67
2023-01-17T17:22:31.767Z,31.23
2023-01-17T17:27:33.487Z,50.95
2023-01-17T17:30:07.789Z,73.68
2023-01-17T17:32:38.999Z,73.10
2023-01-17T17:37:41.413Z,62.72
2023-01-17T17:40:14.263Z,44.75
2023-01-17T17:42:45.924Z,48.08
2023-01-17T17:45:20.265Z,46.78
2023-01-17T17:47:51.775Z,37.88
2023-01-17T17:50:23.421Z,35.55
2023-01-17T17:52:55.536Z,37.28
2023-01-17T17:55:27.166Z,33.17
2023-01-17T17:57:58.456Z,54.90
2023-01-17T18:00:32.740Z,68.43
2023-01-17T18:03:04.165Z,74.05
2023-01-17T18:05:35.275Z,50.75
2023-01-17T18:08:07.631Z,46.08
2023-01-17T18:10:39.796Z,28.55
2023-01-17T18:13:10.938Z,25.30
2023-01-17T18:15:44.536Z,24.25
2023-01-17T18:18:16.152Z,25.95
2023-01-17T18:20:46.926Z,23.05
2023-01-17T18:23:18.188Z,24.85
2023-01-17T18:30:53.171Z,14.20
2023-01-17T18:33:24.258Z,18.98
2023-01-17T18:36:00.103Z,59.53
2023-01-17T18:38:38.626Z,58.53
2023-01-17T18:41:12.141Z,68.60
2023-01-17T18:43:43.607Z,47.72
2023-01-17T18:46:19.888Z,36.72
2023-01-17T18:48:51.959Z,25.42
2023-01-17T18:51:23.217Z,22.27
2023-01-17T18:53:55.384Z,21.08
2023-01-17T18:56:29.811Z,26.38
2023-01-17T18:59:01.481Z,22.88
2023-01-17T19:01:37.441Z,21.02
2023-01-17T19:04:09.301Z,18.38
2023-01-17T19:06:42.718Z,19.75
2023-01-17T19:09:15.541Z,19.40
2023-01-17T19:11:47.703Z,19.60
2023-01-17T19:14:18.956Z,43.67
2023-01-17T19:16:52.962Z,70.18
2023-01-17T19:19:25.676Z,51.30
2023-01-17T19:21:57.152Z,70.20
2023-01-17T19:24:29.826Z,78.65
2023-01-17T19:27:02.866Z,44.75
2023-01-17T19:29:35.525Z,41.30
2023-01-17T19:32:09.900Z,48.67
2023-01-17T19:34:41.100Z,50.08
2023-01-17T19:37:16.407Z,43.53
2023-01-17T19:39:48.392Z,43.05
2023-01-17T19:42:20.610Z,51.15
2023-01-17T19:44:52.632Z,56.17
2023-01-17T19:47:26.183Z,69.90
2023-01-17T19:49:59.739Z,92.32
2023-01-17T19:52:33.132Z,162.68
2023-01-17T19:55:07.213Z,162.50
2023-01-17T19:57:40.852Z,122.63
2023-01-17T20:00:18.875Z,339.70
2023-01-17T20:02:53.768Z,230.98
2023-01-17T20:05:26.170Z,146.00
2023-01-17T20:07:58.828Z,127.55
2023-01-17T20:10:31.571Z,103.50
2023-01-17T20:13:04.774Z,106.28
2023-01-17T20:15:38.868Z,82.88
2023-01-17T20:18:12.907Z,58.95
2023-01-17T20:20:56.581Z,43.58
2023-01-17T20:23:31.339Z,39.05
2023-01-17T20:26:04.957Z,67.78
2023-01-17T20:28:38.960Z,62.45
2023-01-17T20:31:12.827Z,48.88
2023-01-17T20:33:47.598Z,49.53
2023-01-17T20:36:20.486Z,46.35
2023-01-17T20:38:53.470Z,36.08
2023-01-17T20:41:26.681Z,35.85
2023-01-17T20:43:59.307Z,32.42
2023-01-17T20:46:35.695Z,30.70
2023-01-17T20:49:13.247Z,31.17
2023-01-17T20:51:48.822Z,24.38
2023-01-17T20:54:23.957Z,26.05
2023-01-17T20:56:56.195Z,29.27
2023-01-17T20:59:27.649Z,29.77
2023-01-17T21:01:59.239Z,26.98
2023-01-17T21:04:33.538Z,23.55
2023-01-17T21:07:05.841Z,24.75
2023-01-17T21:09:43.501Z,26.70
2023-01-17T21:12:16.216Z,26.70
2023-01-17T21:14:47.291Z,30.45
2023-01-17T21:17:19.502Z,26.75
2023-01-17T21:19:53.204Z,24.95
2023-01-17T21:22:24.335Z,29.15
2023-01-17T21:24:55.313Z,28.17
2023-01-17T21:27:27.048Z,30.77
2023-01-17T21:29:59.515Z,28.27
2023-01-17T21:32:34.216Z,30.65
2023-01-17T21:35:09.182Z,31.42
2023-01-17T21:37:42.676Z,35.33
2023-01-17T21:40:14.925Z,28.67
2023-01-17T21:42:46.503Z,32.08
2023-01-17T21:45:17.531Z,35.42
2023-01-17T21:47:50.298Z,34.28
2023-01-17T21:50:33.119Z,27.05
2023-01-17T21:53:06.038Z,32.40
2023-01-17T21:55:50.078Z,28.42
2023-01-17T21:58:33.972Z,30.70
2023-01-17T22:01:16.287Z,30.02
2023-01-17T22:03:51.156Z,28.38
2023-01-17T22:06:26.939Z,29.30
2023-01-17T22:09:00.603Z,34.42
2023-01-17T22:11:33.337Z,31.25
2023-01-17T22:14:07.626Z,30.65
2023-01-17T22:16:38.612Z,29.83
2023-01-17T22:19:09.844Z,27.77
2023-01-17T22:21:45.190Z,30.90
2023-01-17T22:24:18.293Z,27.38
2023-01-17T22:26:49.721Z,25.83
2023-01-17T22:29:21.967Z,29.45
2023-01-17T22:31:56.071Z,27.17
2023-01-17T22:34:29.471Z,25.52
2023-01-17T22:37:04.956Z,27.45
2023-01-17T22:39:36.299Z,30.27
2023-01-17T22:44:39.135Z,28.63
2023-01-17T22:47:10.149Z,28.95
2023-01-17T22:49:41.358Z,23.08
2023-01-17T22:52:15.085Z,26.15
2023-01-17T22:54:46.495Z,25.08
2023-01-17T22:57:17.434Z,27.20
2023-01-17T22:59:48.705Z,27.73
2023-01-17T23:02:20.218Z,27.63
2023-01-17T23:04:52.064Z,26.02
2023-01-17T23:07:27.222Z,26.08
2023-01-17T23:09:58.971Z,27.80
2023-01-17T23:12:33.784Z,26.55
2023-01-17T23:15:20.498Z,29.13
2023-01-17T23:18:03.850Z,25.33
2023-01-17T23:20:35.762Z,29.70
2023-01-17T23:23:09.373Z,29.52
2023-01-17T23:25:40.604Z,31.08
2023-01-17T23:30:52.453Z,32.40
2023-01-17T23:33:23.404Z,33.78
2023-01-17T23:35:56.459Z,31.60
2023-01-17T23:38:29.862Z,33.75
2023-01-17T23:41:17.204Z,32.22
2023-01-17T23:43:52.788Z,33.50
2023-01-17T23:46:24.763Z,35.78
2023-01-17T23:48:55.682Z,40.35
2023-01-17T23:51:27.072Z,31.98
2023-01-17T23:54:05.683Z,36.13
2023-01-17T23:56:37.584Z,39.33
2023-01-17T23:59:08.651Z,36.45
